Flight Number: EUR2234 Duration: 1:45
Departure: Skopje Airport (LWSK) at 21:20 Distance: 566 Nm
Arrival: Munich Int'l (EDDM) at 23:05 Equipment: B737

Weather Information
Skopje-Petrovec, Macedonia, The Republic of (LWSK) 41-58N 021-39E 239M Aug 17, 2018 - 05:00 PM EDT / 2018.08.17 2100 UTC
Wind: from the NE (050 degrees) at 6 MPH (5 KT):0
Visibility: greater than 7 mile(s):0 Temperature: 73 F (23 C) Dew Point: 60 F (16 C) Relative Humidity: 64% Pressure (altimeter): 29.97 in. Hg (1015 hPa)
ob: LWSK 172100Z 05005KT CAVOK 23/16 Q1015 NOSIG cycle: 21
Sunrise: 03:47 Sunset: 17:27 (UTC)

Munchen, Germany (EDDM) 48-21N 011-47E Aug 17, 2018 - 04:50 PM EDT / 2018.08.17 2050 UTC
Wind: from the E (090 degrees) at 3 MPH (3 KT):0
Visibility: greater than 7 mile(s):0 Temperature: 60 F (16 C) Dew Point: 57 F (14 C) Relative Humidity: 87% Pressure (altimeter): 30.03 in. Hg (1017 hPa)
ob: EDDM 172050Z 09003KT CAVOK 16/14 Q1017 NOSIG cycle: 21
Sunrise: 04:14 Sunset: 18:19 (UTC)

TAF:2018/08/17 18:27 TAF EDDM 171700Z 1718/1824 VRB03KT CAVOK BECMG 1718/1720 27005KT BECMG 1812/1815 33005KT PROB30 TEMPO 1815/1820 TSRA BKN050CB

Previous Pireps for this route
Date Aircraft Flight time Fuel used Landing rate On time
2013-07-24B73701.5211200-241Yes
2014-01-03B73702.1319437-490No
2014-11-05B73701.4310476-121Yes
(pireps marked green are flown by you)

Route map